Главная страница
METAR-TAF:

METAR-TAF

Аэропорты :

Oswego County Airport

Фултон, Нью-Йорк, США

широта: 43-21-03N, долгота: 076-23-17W, высота над уровнем моря: 145 м

Текущие метеонаблюдения

Эта сводка был подготовлена 24 минут назад, в 20:54 UTC
Ветер 15 Узел от западно-северо-западный с порывами до 25 Узел
Температура 9°C
Влажность 81%
Давление 999 hPa
Видимость: 16.1 км
Рассеянная облачность на высоте 1600 фута
Сплошная облачность на высоте 2500 фута
небольшой дождь

METAR: KFZY 172054Z AUTO 29015G25KT 10SM -RA BKN016 OVC025 09/06 A2950 RMK AO2 PK WND 29027/2026 RAB03 SLP991 P0001 60001 T00940061 51031

Время: 17:18 (21:18 UTC)


TAF: отсутствует

Метеонаблюдения и прогнозы для более 4000 аэропортов (сводки METAR и TAF).

Имеющиеся станции представлены на карте желтыми и красными точками.

Чтобы увидеть название станции, наведите на нее мышь.

Затем щелкните, чтобы увидеть метеонаблюдения и метеопрогнозы.

Управление картой: чтобы увеличить масштаб, щелкните зеленые кнопки с черным крестиком; чтобы уменьшить масштаб, щелкните зеленую кнопку с тире; для просмотра соседних карт щелкайте зеленые стрелки.


METAR-TAF: